Four Wishes — 6YSC4 — position and weather

sailwx.info

Track history (hours):
 
Tides and Currents Weather Stations Pressure Air Temp Water Temp Dewpoint Dewpoint Depression Visibility Wind Speed Wind Dir Waves Ship Positions

Four Wishes

Last reported at 2017-Oct-02 18:37 UTC. Time now 2017-Oct-22 13:25 UTC.
Position N 25°26' W 080°07'.
Warning: this ship's position is 19 days out of date.

Length 44 m; draft 2.3 m.

Type: Pleasure craft. MMSI: 339406000.

Date/timePositionNaut miles runAvg speedWind from/ knotsBaromVisibWave heightAir tempDewpointWater temp
2017-Oct-02 18:37N 25°26' W 080°07'2 9.1
2017-Oct-02 18:24N 25°27' W 080°06'4 8.9
2017-Oct-02 18:00N 25°31' W 080°06'5 9.0
2017-Oct-02 17:30N 25°35' W 080°05'5 9.2
2017-Oct-02 17:01N 25°40' W 080°05'5 9.3
2017-Oct-02 16:30N 25°45' W 080°05'5 9.5
2017-Oct-02 16:00N 25°49' W 080°06'5 9.7
2017-Oct-02 15:30N 25°54' W 080°06'5 9.3
2017-Oct-02 15:00N 25°59' W 080°05'5 9.5
2017-Oct-02 14:30N 26°04' W 080°05'3 6.1
2017-Oct-02 14:00N 26°06' W 080°07'2 3.7
2017-Oct-02 13:31N 26°07' W 080°09'2 3.8
2017-Oct-02 13:00N 26°06' W 080°10'1 1.9
2017-Oct-02 12:30N 26°05' W 080°11'0 0.0
2017-Oct-02 12:00N 26°05' W 080°11'0 0.0
2017-Oct-02 11:30N 26°05' W 080°11'0 0.0
2017-Oct-02 11:00N 26°05' W 080°11'0 0.0
2017-Oct-02 10:30N 26°05' W 080°11'0 0.0
2017-Oct-02 10:00N 26°05' W 080°11'0 0.0
2017-Oct-02 09:30N 26°05' W 080°11'0 0.0
2017-Oct-02 09:00N 26°05' W 080°11'0 0.0
2017-Oct-02 08:30N 26°05' W 080°11'0 0.0
2017-Oct-02 08:00N 26°05' W 080°11'0 0.0
2017-Oct-02 07:30N 26°05' W 080°11'0 0.0
2017-Oct-02 07:00N 26°05' W 080°11'0 0.0
2017-Oct-02 06:30N 26°05' W 080°11'0 0.0
2017-Oct-02 06:00N 26°05' W 080°11'0 0.0
2017-Oct-02 05:30N 26°05' W 080°11'0 0.0
2017-Oct-02 05:00N 26°05' W 080°11'0 0.0
2017-Oct-02 04:30N 26°05' W 080°11'0 0.0
2017-Oct-02 04:00N 26°05' W 080°11'0 0.0
2017-Oct-02 03:30N 26°05' W 080°11'0 0.0
2017-Oct-02 03:00N 26°05' W 080°11'0 0.0
2017-Oct-02 02:30N 26°05' W 080°11'0 0.0
2017-Oct-02 02:00N 26°05' W 080°11'0 0.0
2017-Oct-02 01:30N 26°05' W 080°11'0 0.0
2017-Oct-02 01:00N 26°05' W 080°11'0 0.0
2017-Oct-02 00:30N 26°05' W 080°11'0 0.0
2017-Oct-02 00:00N 26°05' W 080°11'0 0.0
2017-Oct-01 23:30N 26°05' W 080°11'0 0.0
2017-Oct-01 23:00N 26°05' W 080°11'0 0.0
2017-Oct-01 22:30N 26°05' W 080°11'0 0.0
2017-Oct-01 22:00N 26°05' W 080°11'0 0.0
2017-Oct-01 21:30N 26°05' W 080°11'0 0.0
2017-Oct-01 21:00N 26°05' W 080°11'0 0.0
2017-Oct-01 20:30N 26°05' W 080°11'0 0.0
2017-Oct-01 20:00N 26°05' W 080°11'0 0.0
2017-Oct-01 19:30N 26°05' W 080°11'0 0.0
2017-Oct-01 19:00N 26°05' W 080°11'0 0.0
2017-Oct-01 18:30N 26°05' W 080°11'0 0.0
2017-Oct-01 18:00N 26°05' W 080°11'0 0.0
2017-Oct-01 17:30N 26°05' W 080°11'0 0.0
2017-Oct-01 17:00N 26°05' W 080°11'0 0.0
2017-Oct-01 16:30N 26°05' W 080°11'0 0.0
2017-Oct-01 16:00N 26°05' W 080°11'0 0.0
2017-Oct-01 15:30N 26°05' W 080°11'0 0.0
2017-Oct-01 15:00N 26°05' W 080°11'0 0.0
2017-Oct-01 14:30N 26°05' W 080°11'0 0.0
2017-Oct-01 14:00N 26°05' W 080°11'0 0.0
2017-Oct-01 13:30N 26°05' W 080°11'0 0.0
2017-Oct-01 13:00N 26°05' W 080°11'0 0.0
2017-Oct-01 12:30N 26°05' W 080°11'0 0.0
2017-Oct-01 12:00N 26°05' W 080°11'0 0.0
2017-Oct-01 11:30N 26°05' W 080°11'0 0.0
2017-Oct-01 11:00N 26°05' W 080°11'0 0.0
2017-Oct-01 10:30N 26°05' W 080°11'0 0.0
2017-Oct-01 10:00N 26°05' W 080°11'0 0.0
2017-Oct-01 09:30N 26°05' W 080°11'0 0.0
2017-Oct-01 09:00N 26°05' W 080°11'0 0.0
2017-Oct-01 08:30N 26°05' W 080°11'0 0.0
2017-Oct-01 08:00N 26°05' W 080°11'0 0.0
2017-Oct-01 07:30N 26°05' W 080°11'0 0.0
2017-Oct-01 07:00N 26°05' W 080°11'0 0.0
2017-Oct-01 06:30N 26°05' W 080°11'0 0.0
2017-Oct-01 06:00N 26°05' W 080°11'0 0.0
2017-Oct-01 05:30N 26°05' W 080°11'0 0.0
2017-Oct-01 05:00N 26°05' W 080°11'0 0.0
2017-Oct-01 04:30N 26°05' W 080°11'0 0.0
2017-Oct-01 04:00N 26°05' W 080°11'0 0.0
2017-Oct-01 03:30N 26°05' W 080°11'0 0.0
2017-Oct-01 03:00N 26°05' W 080°11'0 0.0
2017-Sep-30 02:00N 26°05' W 080°11'0 0.0
2017-Sep-30 01:30N 26°05' W 080°11'0 0.0
2017-Sep-30 01:00N 26°05' W 080°11'0 0.0
2017-Sep-30 00:30N 26°05' W 080°11'0 0.0
2017-Sep-30 00:00N 26°05' W 080°11'0 0.0
2017-Sep-29 23:30N 26°05' W 080°11'0 0.0
2017-Sep-29 23:00N 26°05' W 080°11'0 0.0
2017-Sep-29 22:30N 26°05' W 080°11'0 0.0
2017-Sep-29 22:00N 26°05' W 080°11'0 0.0
2017-Sep-29 21:30N 26°05' W 080°11'0 0.0
2017-Sep-29 21:00N 26°05' W 080°11'0 0.0
2017-Sep-29 20:30N 26°05' W 080°11'0 0.0
2017-Sep-29 20:00N 26°05' W 080°11'0 0.0
2017-Sep-29 19:30N 26°05' W 080°11'0 0.0
2017-Sep-29 19:00N 26°05' W 080°11'0 0.0
2017-Sep-29 18:30N 26°05' W 080°11'0 0.0
2017-Sep-29 17:00N 26°05' W 080°11'0 0.0
2017-Sep-29 16:30N 26°05' W 080°11'0 0.0
2017-Sep-29 16:00N 26°05' W 080°11'0 0.0
2017-Sep-29 15:30N 26°05' W 080°11'0 0.0
2017-Sep-29 15:00N 26°05' W 080°11'0 0.0
2017-Sep-29 14:30N 26°05' W 080°11'0 0.0
2017-Sep-29 14:00N 26°05' W 080°11'0 0.0
2017-Sep-29 13:30N 26°05' W 080°11'0 0.0
2017-Sep-29 13:00N 26°05' W 080°11'0 0.0
2017-Sep-29 12:30N 26°05' W 080°11'0 0.0
2017-Sep-29 12:00N 26°05' W 080°11'0 0.0
2017-Sep-29 11:30N 26°05' W 080°11'0 0.0
2017-Sep-29 11:00N 26°05' W 080°11'0 0.0
2017-Sep-29 10:30N 26°05' W 080°11'0 0.0
2017-Sep-29 10:00N 26°05' W 080°11'0 0.0
2017-Sep-29 09:30N 26°05' W 080°11'0 0.0
2017-Sep-29 09:00N 26°05' W 080°11'0 0.0
2017-Sep-29 08:30N 26°05' W 080°11'0 0.0
2017-Sep-29 08:00N 26°05' W 080°11'0 0.0
2017-Sep-29 07:30N 26°05' W 080°11'0 0.0
2017-Sep-29 07:00N 26°05' W 080°11'0 0.0
2017-Sep-29 06:30N 26°05' W 080°11'0 0.0
2017-Sep-29 06:00N 26°05' W 080°11'0 0.0
2017-Sep-29 05:30N 26°05' W 080°11'0 0.0
2017-Sep-29 05:00N 26°05' W 080°11'0 0.0
2017-Sep-29 04:30N 26°05' W 080°11'0 0.0
2017-Sep-29 04:00N 26°05' W 080°11'0 0.0
2017-Sep-29 03:30N 26°05' W 080°11'0 0.0
2017-Sep-29 03:00N 26°05' W 080°11'0 0.0
2017-Sep-29 02:30N 26°05' W 080°11'0 0.0
2017-Sep-29 02:00N 26°05' W 080°11'0 0.0
2017-Sep-29 01:30N 26°05' W 080°11'0 0.0
2017-Sep-29 01:00N 26°05' W 080°11'0 0.0
2017-Sep-29 00:30N 26°05' W 080°11'0 0.0
2017-Sep-29 00:00N 26°05' W 080°11'0 0.0
2017-Sep-28 23:30N 26°05' W 080°11'0 0.0
2017-Sep-28 23:00N 26°05' W 080°11'0 0.0
2017-Sep-28 22:30N 26°05' W 080°11'0 0.0
2017-Sep-28 22:00N 26°05' W 080°11'0 0.0
2017-Sep-28 21:30N 26°05' W 080°11'0 0.0
2017-Sep-28 21:00N 26°05' W 080°11'0 0.0
2017-Sep-28 20:30N 26°05' W 080°11'0 0.0
2017-Sep-28 20:00N 26°05' W 080°11'0 0.0
2017-Sep-28 19:30N 26°05' W 080°11'0 0.0
2017-Sep-28 19:00N 26°05' W 080°11'0 0.0
2017-Sep-28 18:30N 26°05' W 080°11'0 0.0
2017-Sep-28 18:00N 26°05' W 080°11'0 0.0
2017-Sep-28 17:30N 26°05' W 080°11'0 0.0
2017-Sep-28 17:00N 26°05' W 080°11'0 0.0
2017-Sep-28 16:30N 26°05' W 080°11'0 0.0
2017-Sep-28 16:00N 26°05' W 080°11'0 0.0
2017-Sep-28 15:30N 26°05' W 080°11'0 0.0
2017-Sep-28 15:00N 26°05' W 080°11'0 0.0
2017-Sep-28 14:30N 26°05' W 080°11'0 0.0
2017-Sep-28 14:00N 26°05' W 080°11'0 0.0
2017-Sep-28 13:30N 26°05' W 080°11'0 0.0
2017-Sep-28 13:00N 26°05' W 080°11'0 0.0
2017-Sep-28 12:30N 26°05' W 080°11'0 0.0
2017-Sep-28 12:00N 26°05' W 080°11'0 0.0
2017-Sep-28 11:30N 26°05' W 080°11'0 0.0
2017-Sep-28 11:00N 26°05' W 080°11'0 0.0
2017-Sep-28 10:30N 26°05' W 080°11'0 0.0
2017-Sep-28 10:00N 26°05' W 080°11'0 0.0
2017-Sep-28 09:30N 26°05' W 080°11'0 0.0
2017-Sep-28 09:00N 26°05' W 080°11'0 0.0
2017-Sep-28 08:30N 26°05' W 080°11'0 0.0
2017-Sep-28 08:00N 26°05' W 080°11'0 0.0
2017-Sep-28 07:30N 26°05' W 080°11'0 0.0
2017-Sep-28 07:00N 26°05' W 080°11'0 0.0
2017-Sep-28 06:30N 26°05' W 080°11'0 0.0
2017-Sep-28 06:00N 26°05' W 080°11'0 0.0
2017-Sep-28 05:30N 26°05' W 080°11'0 0.0
2017-Sep-28 05:00N 26°05' W 080°11'0 0.0
2017-Sep-28 04:30N 26°05' W 080°11'0 0.0
2017-Sep-28 04:00N 26°05' W 080°11'0 0.0
2017-Sep-28 03:30N 26°05' W 080°11'0 0.0
2017-Sep-28 03:00N 26°05' W 080°11'0 0.0
2017-Sep-28 02:30N 26°05' W 080°11'0 0.0
2017-Sep-28 02:00N 26°05' W 080°11'0 0.0
2017-Sep-28 01:30N 26°05' W 080°11'0 0.0
2017-Sep-28 01:00N 26°05' W 080°11'0 0.0
2017-Sep-28 00:30N 26°05' W 080°11'0 0.0
2017-Sep-28 00:00N 26°05' W 080°11'0 0.0
2017-Sep-27 23:30N 26°05' W 080°11'0 0.0
2017-Sep-27 23:00N 26°05' W 080°11'0 0.0
2017-Sep-27 22:30N 26°05' W 080°11'0 0.0
2017-Sep-27 22:00N 26°05' W 080°11'0 0.0
2017-Sep-27 21:30N 26°05' W 080°11'0 0.0
2017-Sep-27 21:00N 26°05' W 080°11'0 0.0
2017-Sep-27 20:30N 26°05' W 080°11'0 0.0
2017-Sep-27 20:00N 26°05' W 080°11'0 0.0
2017-Sep-27 19:30N 26°05' W 080°11'0 0.0
2017-Sep-27 19:00N 26°05' W 080°11'0 0.0
2017-Sep-27 18:30N 26°05' W 080°11'0 0.0
2017-Sep-27 18:00N 26°05' W 080°11'0 0.0
2017-Sep-27 17:30N 26°05' W 080°11'0 0.0
2017-Sep-27 17:00N 26°05' W 080°11'0 0.0
2017-Sep-27 16:30N 26°05' W 080°11'0 0.0
2017-Sep-27 16:00N 26°05' W 080°11'0 0.0
2017-Sep-27 15:30N 26°05' W 080°11'0 0.0
2017-Sep-27 15:00N 26°05' W 080°11'0 0.0
2017-Sep-27 14:30N 26°05' W 080°11'0 0.0
2017-Sep-27 14:00N 26°05' W 080°11'0 0.0
2017-Sep-27 13:30N 26°05' W 080°11'0 0.0
2017-Sep-27 13:00N 26°05' W 080°11'0 0.0
2017-Sep-27 12:30N 26°05' W 080°11'0 0.0
2017-Sep-27 12:00N 26°05' W 080°11'0 0.0
2017-Sep-27 11:30N 26°05' W 080°11'0 0.0
2017-Sep-27 11:00N 26°05' W 080°11'0 0.0
2017-Sep-27 10:30N 26°05' W 080°11'0 0.0
2017-Sep-27 10:00N 26°05' W 080°11'0 0.0
2017-Sep-27 09:30N 26°05' W 080°11'0 0.0
2017-Sep-27 09:00N 26°05' W 080°11'0 0.0
2017-Sep-27 08:30N 26°05' W 080°11'0 0.0
2017-Sep-27 08:00N 26°05' W 080°11'0 0.0
2017-Sep-27 07:30N 26°05' W 080°11'0 0.0
2017-Sep-27 07:00N 26°05' W 080°11'0 0.0
2017-Sep-27 06:30N 26°05' W 080°11'0 0.0
2017-Sep-27 06:00N 26°05' W 080°11'0 0.0
2017-Sep-27 05:30N 26°05' W 080°11'0 0.0
2017-Sep-27 05:00N 26°05' W 080°11'0 0.0
2017-Sep-27 04:30N 26°05' W 080°11'0 0.0
2017-Sep-27 04:00N 26°05' W 080°11'0 0.0
2017-Sep-27 03:30N 26°05' W 080°11'0 0.0
2017-Sep-27 03:00N 26°05' W 080°11'0 0.0
2017-Sep-27 02:30N 26°05' W 080°11'0 0.0
2017-Sep-27 02:00N 26°05' W 080°11'0 0.0
2017-Sep-27 01:30N 26°05' W 080°11'0 0.0
2017-Sep-27 01:00N 26°05' W 080°11'0 0.0
2017-Sep-27 00:30N 26°05' W 080°11'0 0.0
2017-Sep-27 00:00N 26°05' W 080°11'0 0.0
2017-Sep-26 23:30N 26°05' W 080°11'0 0.0
2017-Sep-26 23:00N 26°05' W 080°11'0 0.0
2017-Sep-26 22:29N 26°05' W 080°11'0 0.0
2017-Sep-26 22:00N 26°05' W 080°11'0 0.0
2017-Sep-26 21:30N 26°05' W 080°11'0 0.0
2017-Sep-26 21:00N 26°05' W 080°11'0 0.0
2017-Sep-26 20:30N 26°05' W 080°11'0 0.0
2017-Sep-26 20:00N 26°05' W 080°11'0 0.0
2017-Sep-26 19:30N 26°05' W 080°11'0 0.0
2017-Sep-26 19:00N 26°05' W 080°11'0 0.0
2017-Sep-26 18:30N 26°05' W 080°11'0 0.0
2017-Sep-26 18:00N 26°05' W 080°11'0 0.0
2017-Sep-26 17:30N 26°05' W 080°11'0 0.0
2017-Sep-26 17:00N 26°05' W 080°11'0 0.0
2017-Sep-26 16:30N 26°05' W 080°11'0 0.0
2017-Sep-26 16:00N 26°05' W 080°11'0 0.0
2017-Sep-26 15:30N 26°05' W 080°11'0 0.0
2017-Sep-26 15:00N 26°05' W 080°11'0 0.0
2017-Sep-26 14:30N 26°05' W 080°11'0 0.0
2017-Sep-26 14:00N 26°05' W 080°11'0 0.0
2017-Sep-26 13:30N 26°05' W 080°11'0 0.0
2017-Sep-26 13:00N 26°05' W 080°11'0 0.0
2017-Sep-26 12:30N 26°05' W 080°11'0 0.0
2017-Sep-26 12:00N 26°05' W 080°11'0 0.0
2017-Sep-26 11:30N 26°05' W 080°11'0 0.0
2017-Sep-26 11:00N 26°05' W 080°11'0 0.0
2017-Sep-26 10:30N 26°05' W 080°11'0 0.0
2017-Sep-26 10:00N 26°05' W 080°11'0 0.0
2017-Sep-26 09:30N 26°05' W 080°11'0 0.0
2017-Sep-26 09:00N 26°05' W 080°11'0 0.0
2017-Sep-26 08:31N 26°05' W 080°11'0 0.0
2017-Sep-26 08:01N 26°05' W 080°11'0 0.0
2017-Sep-26 07:30N 26°05' W 080°11'0 0.0
2017-Sep-26 07:00N 26°05' W 080°11'0 0.0
2017-Sep-26 06:30N 26°05' W 080°11'0 0.0
2017-Sep-26 06:00N 26°05' W 080°11'0 0.0
2017-Sep-26 05:31N 26°05' W 080°11'0 0.0
2017-Sep-26 05:00N 26°05' W 080°11'0 0.0
2017-Sep-26 04:31N 26°05' W 080°11'0 0.0
2017-Sep-26 04:01N 26°05' W 080°11'0 0.0
2017-Sep-26 03:31N 26°05' W 080°11'0 0.0
2017-Sep-26 03:01N 26°05' W 080°11'0 0.0
2017-Sep-26 02:31N 26°05' W 080°11'0 0.0
2017-Sep-26 02:01N 26°05' W 080°11'0 0.0
2017-Sep-26 01:30N 26°05' W 080°11'0 0.0
2017-Sep-26 01:01N 26°05' W 080°11'0 0.0
2017-Sep-26 00:30N 26°05' W 080°11'0 0.0
2017-Sep-26 00:01N 26°05' W 080°11'0 0.0
2017-Sep-25 23:31N 26°05' W 080°11'0 0.0
2017-Sep-25 23:01N 26°05' W 080°11'0 0.0
2017-Sep-25 22:30N 26°05' W 080°11'0 0.0
2017-Sep-25 22:00N 26°05' W 080°11'0 0.0
2017-Sep-25 21:30N 26°05' W 080°11'0 0.0
2017-Sep-25 21:00N 26°05' W 080°11'0 0.0
2017-Sep-25 20:30N 26°05' W 080°11'0 0.0
2017-Sep-25 20:00N 26°05' W 080°11'0 0.0
2017-Sep-25 19:30N 26°05' W 080°11'0 0.0
2017-Sep-25 19:00N 26°05' W 080°11'0 0.0
2017-Sep-25 18:30N 26°05' W 080°11'0 0.0
2017-Sep-25 18:00N 26°05' W 080°11'0 0.0
2017-Sep-25 17:31N 26°05' W 080°11'0 0.0
2017-Sep-25 17:01N 26°05' W 080°11'0 0.0
2017-Sep-25 16:30N 26°05' W 080°11'0 0.0
2017-Sep-25 16:01N 26°05' W 080°11'0 0.0
2017-Sep-25 15:31N 26°05' W 080°11'0 0.0
2017-Sep-25 15:01N 26°05' W 080°11'0 0.0
2017-Sep-25 14:30N 26°05' W 080°11'0 0.0
2017-Sep-25 14:00N 26°05' W 080°11'0 0.0
2017-Sep-25 13:31N 26°05' W 080°11'0 0.0
2017-Sep-25 13:01N 26°05' W 080°11'0 0.0
2017-Sep-25 12:30N 26°05' W 080°11'0 0.0
2017-Sep-25 12:01N 26°05' W 080°11'0 0.0
2017-Sep-25 11:30N 26°05' W 080°11'0 0.0
2017-Sep-25 11:01N 26°05' W 080°11'0 0.0
2017-Sep-25 10:31N 26°05' W 080°11'0 0.0
2017-Sep-25 10:01N 26°05' W 080°11'0 0.0
2017-Sep-25 09:30N 26°05' W 080°11'0 0.0
2017-Sep-25 09:01N 26°05' W 080°11'0 0.0
2017-Sep-25 08:30N 26°05' W 080°11'0 0.0
2017-Sep-25 08:00N 26°05' W 080°11'0 0.0
2017-Sep-25 07:30N 26°05' W 080°11'0 0.0
2017-Sep-25 07:01N 26°05' W 080°11'0 0.0
2017-Sep-25 06:30N 26°05' W 080°11'0 0.0
2017-Sep-25 06:01N 26°05' W 080°11'0 0.0
2017-Sep-25 05:30N 26°05' W 080°11'0 0.0
2017-Sep-25 05:00N 26°05' W 080°11'0 0.0
2017-Sep-25 04:30N 26°05' W 080°11'0 0.0
2017-Sep-25 04:00N 26°05' W 080°11'0 0.0
2017-Sep-25 03:31N 26°05' W 080°11'0 0.0
2017-Sep-25 03:00N 26°05' W 080°11'0 0.0
2017-Sep-25 02:30N 26°05' W 080°11'0 0.0
2017-Sep-25 02:01N 26°05' W 080°11'0 0.0
2017-Sep-25 01:31N 26°05' W 080°11'0 0.0
2017-Sep-25 01:00N 26°05' W 080°11'0 0.0
2017-Sep-25 00:30N 26°05' W 080°11'0 0.0
2017-Sep-25 00:01N 26°05' W 080°11'0 0.0
2017-Sep-24 23:30N 26°05' W 080°11'0 0.0
2017-Sep-24 23:01N 26°05' W 080°11'0 0.0
2017-Sep-24 22:31N 26°05' W 080°11'0 0.0
2017-Sep-24 22:00N 26°05' W 080°11'0 0.0
2017-Sep-24 21:31N 26°05' W 080°11'0 0.0
2017-Sep-24 21:00N 26°05' W 080°11'0 0.0
2017-Sep-24 20:30N 26°05' W 080°11'0 0.0
2017-Sep-24 20:00N 26°05' W 080°11'0 0.0
2017-Sep-24 19:31N 26°05' W 080°11'0 0.0
2017-Sep-24 19:00N 26°05' W 080°11'0 0.0
2017-Sep-24 18:30N 26°05' W 080°11'0 0.0
2017-Sep-24 18:00N 26°05' W 080°11'0 0.0
2017-Sep-24 17:30N 26°05' W 080°11'0 0.0
2017-Sep-24 17:00N 26°05' W 080°11'0 0.0
2017-Sep-24 16:30N 26°05' W 080°11'0 0.0
2017-Sep-24 16:00N 26°05' W 080°11'0 0.0
2017-Sep-24 15:30N 26°05' W 080°11'0 0.0
2017-Sep-24 15:00N 26°05' W 080°11'0 0.0
2017-Sep-24 14:30N 26°05' W 080°11'0 0.0
2017-Sep-24 14:00N 26°05' W 080°11'0 0.0
2017-Sep-24 13:30N 26°05' W 080°11'0 0.0
2017-Sep-24 13:00N 26°05' W 080°11'0 0.0
2017-Sep-24 12:30N 26°05' W 080°11'0 0.0
2017-Sep-24 12:01N 26°05' W 080°11'0 0.0
2017-Sep-24 11:31N 26°05' W 080°11'0 0.0
2017-Sep-24 11:01N 26°05' W 080°11'0 0.0
2017-Sep-24 10:30N 26°05' W 080°11'0 0.0
2017-Sep-24 10:01N 26°05' W 080°11'0 0.0
2017-Sep-24 09:30N 26°05' W 080°11'0 0.0
2017-Sep-24 09:00N 26°05' W 080°11'0 0.0
2017-Sep-24 08:31N 26°05' W 080°11'0 0.0
2017-Sep-24 08:01N 26°05' W 080°11'0 0.0
2017-Sep-24 07:31N 26°05' W 080°11'0 0.0
2017-Sep-24 07:01N 26°05' W 080°11'0 0.0
2017-Sep-24 06:31N 26°05' W 080°11'0 0.0
2017-Sep-24 06:01N 26°05' W 080°11'0 0.0
2017-Sep-24 05:31N 26°05' W 080°11'0 0.0
2017-Sep-24 05:01N 26°05' W 080°11'0 0.0
2017-Sep-24 04:30N 26°05' W 080°11'0 0.0
2017-Sep-24 04:00N 26°05' W 080°11'0 0.0
2017-Sep-24 03:30N 26°05' W 080°11'0 0.0
2017-Sep-24 03:00N 26°05' W 080°11'0 0.0
2017-Sep-24 02:30N 26°05' W 080°11'0 0.0
2017-Sep-24 02:00N 26°05' W 080°11'0 0.0
2017-Sep-24 01:30N 26°05' W 080°11'0 0.0
2017-Sep-24 01:00N 26°05' W 080°11'0 0.0
2017-Sep-24 00:30N 26°05' W 080°11'0 0.0
2017-Sep-24 00:00N 26°05' W 080°11'0 0.0
2017-Sep-23 23:30N 26°05' W 080°11'0 0.0
2017-Sep-23 23:00N 26°05' W 080°11'0 0.0
2017-Sep-23 22:30N 26°05' W 080°11'0 0.0
2017-Sep-23 22:01N 26°05' W 080°11'0 0.0
2017-Sep-23 21:30N 26°05' W 080°11'0 0.0
2017-Sep-23 21:00N 26°05' W 080°11'0 0.0
2017-Sep-23 20:30N 26°05' W 080°11'0 0.0
2017-Sep-23 20:01N 26°05' W 080°11'  
Track history (hours):
 
Tides and Currents Weather Stations Pressure Air Temp Water Temp Dewpoint Dewpoint Depression Visibility Wind Speed Wind Dir Waves Ship Positions

Four Wishes

Last reported at 2017-Oct-02 18:37 UTC. Time now 2017-Oct-22 13:25 UTC.
Position N 25°26' W 080°07'.
Warning: this ship's position is 19 days out of date.

Length 44 m; draft 2.3 m.

Type: Pleasure craft. MMSI: 339406000.

Date/timePositionNaut miles runAvg speedWind from/ knotsBaromVisibWave heightAir tempDewpointWater temp
2017-Oct-02 18:37N 25°26' W 080°07'2 9.1
2017-Oct-02 18:24N 25°27' W 080°06'4 8.9
2017-Oct-02 18:00N 25°31' W 080°06'5 9.0
2017-Oct-02 17:30N 25°35' W 080°05'5 9.2
2017-Oct-02 17:01N 25°40' W 080°05'5 9.3
2017-Oct-02 16:30N 25°45' W 080°05'5 9.5
2017-Oct-02 16:00N 25°49' W 080°06'5 9.7
2017-Oct-02 15:30N 25°54' W 080°06'5 9.3
2017-Oct-02 15:00N 25°59' W 080°05'5 9.5
2017-Oct-02 14:30N 26°04' W 080°05'3 6.1
2017-Oct-02 14:00N 26°06' W 080°07'2 3.7
2017-Oct-02 13:31N 26°07' W 080°09'2 3.8
2017-Oct-02 13:00N 26°06' W 080°10'1 1.9
2017-Oct-02 12:30N 26°05' W 080°11'0 0.0
2017-Oct-02 12:00N 26°05' W 080°11'0 0.0
2017-Oct-02 11:30N 26°05' W 080°11'0 0.0
2017-Oct-02 11:00N 26°05' W 080°11'0 0.0
2017-Oct-02 10:30N 26°05' W 080°11'0 0.0
2017-Oct-02 10:00N 26°05' W 080°11'0 0.0
2017-Oct-02 09:30N 26°05' W 080°11'0 0.0
2017-Oct-02 09:00N 26°05' W 080°11'0 0.0
2017-Oct-02 08:30N 26°05' W 080°11'0 0.0
2017-Oct-02 08:00N 26°05' W 080°11'0 0.0
2017-Oct-02 07:30N 26°05' W 080°11'0 0.0
2017-Oct-02 07:00N 26°05' W 080°11'0 0.0
2017-Oct-02 06:30N 26°05' W 080°11'0 0.0
2017-Oct-02 06:00N 26°05' W 080°11'0 0.0
2017-Oct-02 05:30N 26°05' W 080°11'0 0.0
2017-Oct-02 05:00N 26°05' W 080°11'0 0.0
2017-Oct-02 04:30N 26°05' W 080°11'0 0.0
2017-Oct-02 04:00N 26°05' W 080°11'0 0.0
2017-Oct-02 03:30N 26°05' W 080°11'0 0.0
2017-Oct-02 03:00N 26°05' W 080°11'0 0.0
2017-Oct-02 02:30N 26°05' W 080°11'0 0.0
2017-Oct-02 02:00N 26°05' W 080°11'0 0.0
2017-Oct-02 01:30N 26°05' W 080°11'0 0.0
2017-Oct-02 01:00N 26°05' W 080°11'0 0.0
2017-Oct-02 00:30N 26°05' W 080°11'0 0.0
2017-Oct-02 00:00N 26°05' W 080°11'0 0.0
2017-Oct-01 23:30N 26°05' W 080°11'0 0.0
2017-Oct-01 23:00N 26°05' W 080°11'0 0.0
2017-Oct-01 22:30N 26°05' W 080°11'0 0.0
2017-Oct-01 22:00N 26°05' W 080°11'0 0.0
2017-Oct-01 21:30N 26°05' W 080°11'0 0.0
2017-Oct-01 21:00N 26°05' W 080°11'0 0.0
2017-Oct-01 20:30N 26°05' W 080°11'0 0.0
2017-Oct-01 20:00N 26°05' W 080°11'0 0.0
2017-Oct-01 19:30N 26°05' W 080°11'0 0.0
2017-Oct-01 19:00N 26°05' W 080°11'0 0.0
2017-Oct-01 18:30N 26°05' W 080°11'0 0.0
2017-Oct-01 18:00N 26°05' W 080°11'0 0.0
2017-Oct-01 17:30N 26°05' W 080°11'0 0.0
2017-Oct-01 17:00N 26°05' W 080°11'0 0.0
2017-Oct-01 16:30N 26°05' W 080°11'0 0.0
2017-Oct-01 16:00N 26°05' W 080°11'0 0.0
2017-Oct-01 15:30N 26°05' W 080°11'0 0.0
2017-Oct-01 15:00N 26°05' W 080°11'0 0.0
2017-Oct-01 14:30N 26°05' W 080°11'0 0.0
2017-Oct-01 14:00N 26°05' W 080°11'0 0.0
2017-Oct-01 13:30N 26°05' W 080°11'0 0.0
2017-Oct-01 13:00N 26°05' W 080°11'0 0.0
2017-Oct-01 12:30N 26°05' W 080°11'0 0.0
2017-Oct-01 12:00N 26°05' W 080°11'0 0.0
2017-Oct-01 11:30N 26°05' W 080°11'0 0.0
2017-Oct-01 11:00N 26°05' W 080°11'0 0.0
2017-Oct-01 10:30N 26°05' W 080°11'0 0.0
2017-Oct-01 10:00N 26°05' W 080°11'0 0.0
2017-Oct-01 09:30N 26°05' W 080°11'0 0.0
2017-Oct-01 09:00N 26°05' W 080°11'0 0.0
2017-Oct-01 08:30N 26°05' W 080°11'0 0.0
2017-Oct-01 08:00N 26°05' W 080°11'0 0.0
2017-Oct-01 07:30N 26°05' W 080°11'0 0.0
2017-Oct-01 07:00N 26°05' W 080°11'0 0.0
2017-Oct-01 06:30N 26°05' W 080°11'0 0.0
2017-Oct-01 06:00N 26°05' W 080°11'0 0.0
2017-Oct-01 05:30N 26°05' W 080°11'0 0.0
2017-Oct-01 05:00N 26°05' W 080°11'0 0.0
2017-Oct-01 04:30N 26°05' W 080°11'0 0.0
2017-Oct-01 04:00N 26°05' W 080°11'0 0.0
2017-Oct-01 03:30N 26°05' W 080°11'0 0.0
2017-Oct-01 03:00N 26°05' W 080°11'0 0.0
2017-Sep-30 02:00N 26°05' W 080°11'0 0.0
2017-Sep-30 01:30N 26°05' W 080°11'0 0.0
2017-Sep-30 01:00N 26°05' W 080°11'0 0.0
2017-Sep-30 00:30N 26°05' W 080°11'0 0.0
2017-Sep-30 00:00N 26°05' W 080°11'0 0.0
2017-Sep-29 23:30N 26°05' W 080°11'0 0.0
2017-Sep-29 23:00N 26°05' W 080°11'0 0.0
2017-Sep-29 22:30N 26°05' W 080°11'0 0.0
2017-Sep-29 22:00N 26°05' W 080°11'0 0.0
2017-Sep-29 21:30N 26°05' W 080°11'0 0.0
2017-Sep-29 21:00N 26°05' W 080°11'0 0.0
2017-Sep-29 20:30N 26°05' W 080°11'0 0.0
2017-Sep-29 20:00N 26°05' W 080°11'0 0.0
2017-Sep-29 19:30N 26°05' W 080°11'0 0.0
2017-Sep-29 19:00N 26°05' W 080°11'0 0.0
2017-Sep-29 18:30N 26°05' W 080°11'0 0.0
2017-Sep-29 17:00N 26°05' W 080°11'0 0.0
2017-Sep-29 16:30N 26°05' W 080°11'0 0.0
2017-Sep-29 16:00N 26°05' W 080°11'0 0.0
2017-Sep-29 15:30N 26°05' W 080°11'0 0.0
2017-Sep-29 15:00N 26°05' W 080°11'0 0.0
2017-Sep-29 14:30N 26°05' W 080°11'0 0.0
2017-Sep-29 14:00N 26°05' W 080°11'0 0.0
2017-Sep-29 13:30N 26°05' W 080°11'0 0.0
2017-Sep-29 13:00N 26°05' W 080°11'0 0.0
2017-Sep-29 12:30N 26°05' W 080°11'0 0.0
2017-Sep-29 12:00N 26°05' W 080°11'0 0.0
2017-Sep-29 11:30N 26°05' W 080°11'0 0.0
2017-Sep-29 11:00N 26°05' W 080°11'0 0.0
2017-Sep-29 10:30N 26°05' W 080°11'0 0.0
2017-Sep-29 10:00N 26°05' W 080°11'0 0.0
2017-Sep-29 09:30N 26°05' W 080°11'0 0.0
2017-Sep-29 09:00N 26°05' W 080°11'0 0.0
2017-Sep-29 08:30N 26°05' W 080°11'0 0.0
2017-Sep-29 08:00N 26°05' W 080°11'0 0.0
2017-Sep-29 07:30N 26°05' W 080°11'0 0.0
2017-Sep-29 07:00N 26°05' W 080°11'0 0.0
2017-Sep-29 06:30N 26°05' W 080°11'0 0.0
2017-Sep-29 06:00N 26°05' W 080°11'0 0.0
2017-Sep-29 05:30N 26°05' W 080°11'0 0.0
2017-Sep-29 05:00N 26°05' W 080°11'0 0.0
2017-Sep-29 04:30N 26°05' W 080°11'0 0.0
2017-Sep-29 04:00N 26°05' W 080°11'0 0.0
2017-Sep-29 03:30N 26°05' W 080°11'0 0.0
2017-Sep-29 03:00N 26°05' W 080°11'0 0.0
2017-Sep-29 02:30N 26°05' W 080°11'0 0.0
2017-Sep-29 02:00N 26°05' W 080°11'0 0.0
2017-Sep-29 01:30N 26°05' W 080°11'0 0.0
2017-Sep-29 01:00N 26°05' W 080°11'0 0.0
2017-Sep-29 00:30N 26°05' W 080°11'0 0.0
2017-Sep-29 00:00N 26°05' W 080°11'0 0.0
2017-Sep-28 23:30N 26°05' W 080°11'0 0.0
2017-Sep-28 23:00N 26°05' W 080°11'0 0.0
2017-Sep-28 22:30N 26°05' W 080°11'0 0.0
2017-Sep-28 22:00N 26°05' W 080°11'0 0.0
2017-Sep-28 21:30N 26°05' W 080°11'0 0.0
2017-Sep-28 21:00N 26°05' W 080°11'0 0.0
2017-Sep-28 20:30N 26°05' W 080°11'0 0.0
2017-Sep-28 20:00N 26°05' W 080°11'0 0.0
2017-Sep-28 19:30N 26°05' W 080°11'0 0.0
2017-Sep-28 19:00N 26°05' W 080°11'0 0.0
2017-Sep-28 18:30N 26°05' W 080°11'0 0.0
2017-Sep-28 18:00N 26°05' W 080°11'0 0.0
2017-Sep-28 17:30N 26°05' W 080°11'0 0.0
2017-Sep-28 17:00N 26°05' W 080°11'0 0.0
2017-Sep-28 16:30N 26°05' W 080°11'0 0.0
2017-Sep-28 16:00N 26°05' W 080°11'0 0.0
2017-Sep-28 15:30N 26°05' W 080°11'0 0.0
2017-Sep-28 15:00N 26°05' W 080°11'0 0.0
2017-Sep-28 14:30N 26°05' W 080°11'0 0.0
2017-Sep-28 14:00N 26°05' W 080°11'0 0.0
2017-Sep-28 13:30N 26°05' W 080°11'0 0.0
2017-Sep-28 13:00N 26°05' W 080°11'0 0.0
2017-Sep-28 12:30N 26°05' W 080°11'0 0.0
2017-Sep-28 12:00N 26°05' W 080°11'0 0.0
2017-Sep-28 11:30N 26°05' W 080°11'0 0.0
2017-Sep-28 11:00N 26°05' W 080°11'0 0.0
2017-Sep-28 10:30N 26°05' W 080°11'0 0.0
2017-Sep-28 10:00N 26°05' W 080°11'0 0.0
2017-Sep-28 09:30N 26°05' W 080°11'0 0.0
2017-Sep-28 09:00N 26°05' W 080°11'0 0.0
2017-Sep-28 08:30N 26°05' W 080°11'0 0.0
2017-Sep-28 08:00N 26°05' W 080°11'0 0.0
2017-Sep-28 07:30N 26°05' W 080°11'0 0.0
2017-Sep-28 07:00N 26°05' W 080°11'0 0.0
2017-Sep-28 06:30N 26°05' W 080°11'0 0.0
2017-Sep-28 06:00N 26°05' W 080°11'0 0.0
2017-Sep-28 05:30N 26°05' W 080°11'0 0.0
2017-Sep-28 05:00N 26°05' W 080°11'0 0.0
2017-Sep-28 04:30N 26°05' W 080°11'0 0.0
2017-Sep-28 04:00N 26°05' W 080°11'0 0.0
2017-Sep-28 03:30N 26°05' W 080°11'0 0.0
2017-Sep-28 03:00N 26°05' W 080°11'0 0.0
2017-Sep-28 02:30N 26°05' W 080°11'0 0.0
2017-Sep-28 02:00N 26°05' W 080°11'0 0.0
2017-Sep-28 01:30N 26°05' W 080°11'0 0.0
2017-Sep-28 01:00N 26°05' W 080°11'0 0.0
2017-Sep-28 00:30N 26°05' W 080°11'0 0.0
2017-Sep-28 00:00N 26°05' W 080°11'0 0.0
2017-Sep-27 23:30N 26°05' W 080°11'0 0.0
2017-Sep-27 23:00N 26°05' W 080°11'0 0.0
2017-Sep-27 22:30N 26°05' W 080°11'0 0.0
2017-Sep-27 22:00N 26°05' W 080°11'0 0.0
2017-Sep-27 21:30N 26°05' W 080°11'0 0.0
2017-Sep-27 21:00N 26°05' W 080°11'0 0.0
2017-Sep-27 20:30N 26°05' W 080°11'0 0.0
2017-Sep-27 20:00N 26°05' W 080°11'0 0.0
2017-Sep-27 19:30N 26°05' W 080°11'0 0.0
2017-Sep-27 19:00N 26°05' W 080°11'0 0.0
2017-Sep-27 18:30N 26°05' W 080°11'0 0.0
2017-Sep-27 18:00N 26°05' W 080°11'0 0.0
2017-Sep-27 17:30N 26°05' W 080°11'0 0.0
2017-Sep-27 17:00N 26°05' W 080°11'0 0.0
2017-Sep-27 16:30N 26°05' W 080°11'0 0.0
2017-Sep-27 16:00N 26°05' W 080°11'0 0.0
2017-Sep-27 15:30N 26°05' W 080°11'0 0.0
2017-Sep-27 15:00N 26°05' W 080°11'0 0.0
2017-Sep-27 14:30N 26°05' W 080°11'0 0.0
2017-Sep-27 14:00N 26°05' W 080°11'0 0.0
2017-Sep-27 13:30N 26°05' W 080°11'0 0.0
2017-Sep-27 13:00N 26°05' W 080°11'0 0.0
2017-Sep-27 12:30N 26°05' W 080°11'0 0.0
2017-Sep-27 12:00N 26°05' W 080°11'0 0.0
2017-Sep-27 11:30N 26°05' W 080°11'0 0.0
2017-Sep-27 11:00N 26°05' W 080°11'0 0.0
2017-Sep-27 10:30N 26°05' W 080°11'0 0.0
2017-Sep-27 10:00N 26°05' W 080°11'0 0.0
2017-Sep-27 09:30N 26°05' W 080°11'0 0.0
2017-Sep-27 09:00N 26°05' W 080°11'0 0.0
2017-Sep-27 08:30N 26°05' W 080°11'0 0.0
2017-Sep-27 08:00N 26°05' W 080°11'0 0.0
2017-Sep-27 07:30N 26°05' W 080°11'0 0.0
2017-Sep-27 07:00N 26°05' W 080°11'0 0.0
2017-Sep-27 06:30N 26°05' W 080°11'0 0.0
2017-Sep-27 06:00N 26°05' W 080°11'0 0.0
2017-Sep-27 05:30N 26°05' W 080°11'0 0.0
2017-Sep-27 05:00N 26°05' W 080°11'0 0.0
2017-Sep-27 04:30N 26°05' W 080°11'0 0.0
2017-Sep-27 04:00N 26°05' W 080°11'0 0.0
2017-Sep-27 03:30N 26°05' W 080°11'0 0.0
2017-Sep-27 03:00N 26°05' W 080°11'0 0.0
2017-Sep-27 02:30N 26°05' W 080°11'0 0.0
2017-Sep-27 02:00N 26°05' W 080°11'0 0.0
2017-Sep-27 01:30N 26°05' W 080°11'0 0.0
2017-Sep-27 01:00N 26°05' W 080°11'0 0.0
2017-Sep-27 00:30N 26°05' W 080°11'0 0.0
2017-Sep-27 00:00N 26°05' W 080°11'0 0.0
2017-Sep-26 23:30N 26°05' W 080°11'0 0.0
2017-Sep-26 23:00N 26°05' W 080°11'0 0.0
2017-Sep-26 22:29N 26°05' W 080°11'0 0.0
2017-Sep-26 22:00N 26°05' W 080°11'0 0.0
2017-Sep-26 21:30N 26°05' W 080°11'0 0.0
2017-Sep-26 21:00N 26°05' W 080°11'0 0.0
2017-Sep-26 20:30N 26°05' W 080°11'0 0.0
2017-Sep-26 20:00N 26°05' W 080°11'0 0.0
2017-Sep-26 19:30N 26°05' W 080°11'0 0.0
2017-Sep-26 19:00N 26°05' W 080°11'0 0.0
2017-Sep-26 18:30N 26°05' W 080°11'0 0.0
2017-Sep-26 18:00N 26°05' W 080°11'0 0.0
2017-Sep-26 17:30N 26°05' W 080°11'0 0.0
2017-Sep-26 17:00N 26°05' W 080°11'0 0.0
2017-Sep-26 16:30N 26°05' W 080°11'0 0.0
2017-Sep-26 16:00N 26°05' W 080°11'0 0.0
2017-Sep-26 15:30N 26°05' W 080°11'0 0.0
2017-Sep-26 15:00N 26°05' W 080°11'0 0.0
2017-Sep-26 14:30N 26°05' W 080°11'0 0.0
2017-Sep-26 14:00N 26°05' W 080°11'0 0.0
2017-Sep-26 13:30N 26°05' W 080°11'0 0.0
2017-Sep-26 13:00N 26°05' W 080°11'0 0.0
2017-Sep-26 12:30N 26°05' W 080°11'0 0.0
2017-Sep-26 12:00N 26°05' W 080°11'0 0.0
2017-Sep-26 11:30N 26°05' W 080°11'0 0.0
2017-Sep-26 11:00N 26°05' W 080°11'0 0.0
2017-Sep-26 10:30N 26°05' W 080°11'0 0.0
2017-Sep-26 10:00N 26°05' W 080°11'0 0.0
2017-Sep-26 09:30N 26°05' W 080°11'0 0.0
2017-Sep-26 09:00N 26°05' W 080°11'0 0.0
2017-Sep-26 08:31N 26°05' W 080°11'0 0.0
2017-Sep-26 08:01N 26°05' W 080°11'0 0.0
2017-Sep-26 07:30N 26°05' W 080°11'0 0.0
2017-Sep-26 07:00N 26°05' W 080°11'0 0.0
2017-Sep-26 06:30N 26°05' W 080°11'0 0.0
2017-Sep-26 06:00N 26°05' W 080°11'0 0.0
2017-Sep-26 05:31N 26°05' W 080°11'0 0.0
2017-Sep-26 05:00N 26°05' W 080°11'0 0.0
2017-Sep-26 04:31N 26°05' W 080°11'0 0.0
2017-Sep-26 04:01N 26°05' W 080°11'0 0.0
2017-Sep-26 03:31N 26°05' W 080°11'0 0.0
2017-Sep-26 03:01N 26°05' W 080°11'0 0.0
2017-Sep-26 02:31N 26°05' W 080°11'0 0.0
2017-Sep-26 02:01N 26°05' W 080°11'0 0.0
2017-Sep-26 01:30N 26°05' W 080°11'0 0.0
2017-Sep-26 01:01N 26°05' W 080°11'0 0.0
2017-Sep-26 00:30N 26°05' W 080°11'0 0.0
2017-Sep-26 00:01N 26°05' W 080°11'0 0.0
2017-Sep-25 23:31N 26°05' W 080°11'0 0.0
2017-Sep-25 23:01N 26°05' W 080°11'0 0.0
2017-Sep-25 22:30N 26°05' W 080°11'0 0.0
2017-Sep-25 22:00N 26°05' W 080°11'0 0.0
2017-Sep-25 21:30N 26°05' W 080°11'0 0.0
2017-Sep-25 21:00N 26°05' W 080°11'0 0.0
2017-Sep-25 20:30N 26°05' W 080°11'0 0.0
2017-Sep-25 20:00N 26°05' W 080°11'0 0.0
2017-Sep-25 19:30N 26°05' W 080°11'0 0.0
2017-Sep-25 19:00N 26°05' W 080°11'0 0.0
2017-Sep-25 18:30N 26°05' W 080°11'0 0.0
2017-Sep-25 18:00N 26°05' W 080°11'0 0.0
2017-Sep-25 17:31N 26°05' W 080°11'0 0.0
2017-Sep-25 17:01N 26°05' W 080°11'0 0.0
2017-Sep-25 16:30N 26°05' W 080°11'0 0.0
2017-Sep-25 16:01N 26°05' W 080°11'0 0.0
2017-Sep-25 15:31N 26°05' W 080°11'0 0.0
2017-Sep-25 15:01N 26°05' W 080°11'0 0.0
2017-Sep-25 14:30N 26°05' W 080°11'0 0.0
2017-Sep-25 14:00N 26°05' W 080°11'0 0.0
2017-Sep-25 13:31N 26°05' W 080°11'0 0.0
2017-Sep-25 13:01N 26°05' W 080°11'0 0.0
2017-Sep-25 12:30N 26°05' W 080°11'0 0.0
2017-Sep-25 12:01N 26°05' W 080°11'0 0.0
2017-Sep-25 11:30N 26°05' W 080°11'0 0.0
2017-Sep-25 11:01N 26°05' W 080°11'0 0.0
2017-Sep-25 10:31N 26°05' W 080°11'0 0.0
2017-Sep-25 10:01N 26°05' W 080°11'0 0.0
2017-Sep-25 09:30N 26°05' W 080°11'0 0.0
2017-Sep-25 09:01N 26°05' W 080°11'0 0.0
2017-Sep-25 08:30N 26°05' W 080°11'0 0.0
2017-Sep-25 08:00N 26°05' W 080°11'0 0.0
2017-Sep-25 07:30N 26°05' W 080°11'0 0.0
2017-Sep-25 07:01N 26°05' W 080°11'0 0.0
2017-Sep-25 06:30N 26°05' W 080°11'0 0.0
2017-Sep-25 06:01N 26°05' W 080°11'0 0.0
2017-Sep-25 05:30N 26°05' W 080°11'0 0.0
2017-Sep-25 05:00N 26°05' W 080°11'0 0.0
2017-Sep-25 04:30N 26°05' W 080°11'0 0.0
2017-Sep-25 04:00N 26°05' W 080°11'0 0.0
2017-Sep-25 03:31N 26°05' W 080°11'0 0.0
2017-Sep-25 03:00N 26°05' W 080°11'0 0.0
2017-Sep-25 02:30N 26°05' W 080°11'0 0.0
2017-Sep-25 02:01N 26°05' W 080°11'0 0.0
2017-Sep-25 01:31N 26°05' W 080°11'0 0.0
2017-Sep-25 01:00N 26°05' W 080°11'0 0.0
2017-Sep-25 00:30N 26°05' W 080°11'0 0.0
2017-Sep-25 00:01N 26°05' W 080°11'0 0.0
2017-Sep-24 23:30N 26°05' W 080°11'0 0.0
2017-Sep-24 23:01N 26°05' W 080°11'0 0.0
2017-Sep-24 22:31N 26°05' W 080°11'0 0.0
2017-Sep-24 22:00N 26°05' W 080°11'0 0.0
2017-Sep-24 21:31N 26°05' W 080°11'0 0.0
2017-Sep-24 21:00N 26°05' W 080°11'0 0.0
2017-Sep-24 20:30N 26°05' W 080°11'0 0.0
2017-Sep-24 20:00N 26°05' W 080°11'0 0.0
2017-Sep-24 19:31N 26°05' W 080°11'0 0.0
2017-Sep-24 19:00N 26°05' W 080°11'0 0.0
2017-Sep-24 18:30N 26°05' W 080°11'0 0.0
2017-Sep-24 18:00N 26°05' W 080°11'0 0.0
2017-Sep-24 17:30N 26°05' W 080°11'0 0.0
2017-Sep-24 17:00N 26°05' W 080°11'0 0.0
2017-Sep-24 16:30N 26°05' W 080°11'0 0.0
2017-Sep-24 16:00N 26°05' W 080°11'0 0.0
2017-Sep-24 15:30N 26°05' W 080°11'0 0.0
2017-Sep-24 15:00N 26°05' W 080°11'0 0.0
2017-Sep-24 14:30N 26°05' W 080°11'0 0.0
2017-Sep-24 14:00N 26°05' W 080°11'0 0.0
2017-Sep-24 13:30N 26°05' W 080°11'0 0.0
2017-Sep-24 13:00N 26°05' W 080°11'0 0.0
2017-Sep-24 12:30N 26°05' W 080°11'0 0.0
2017-Sep-24 12:01N 26°05' W 080°11'0 0.0
2017-Sep-24 11:31N 26°05' W 080°11'0 0.0
2017-Sep-24 11:01N 26°05' W 080°11'0 0.0
2017-Sep-24 10:30N 26°05' W 080°11'0 0.0
2017-Sep-24 10:01N 26°05' W 080°11'0 0.0
2017-Sep-24 09:30N 26°05' W 080°11'0 0.0
2017-Sep-24 09:00N 26°05' W 080°11'0 0.0
2017-Sep-24 08:31N 26°05' W 080°11'0 0.0
2017-Sep-24 08:01N 26°05' W 080°11'0 0.0
2017-Sep-24 07:31N 26°05' W 080°11'0 0.0
2017-Sep-24 07:01N 26°05' W 080°11'0 0.0
2017-Sep-24 06:31N 26°05' W 080°11'0 0.0
2017-Sep-24 06:01N 26°05' W 080°11'0 0.0
2017-Sep-24 05:31N 26°05' W 080°11'0 0.0
2017-Sep-24 05:01N 26°05' W 080°11'0 0.0
2017-Sep-24 04:30N 26°05' W 080°11'0 0.0
2017-Sep-24 04:00N 26°05' W 080°11'0 0.0
2017-Sep-24 03:30N 26°05' W 080°11'0 0.0
2017-Sep-24 03:00N 26°05' W 080°11'0 0.0
2017-Sep-24 02:30N 26°05' W 080°11'0 0.0
2017-Sep-24 02:00N 26°05' W 080°11'0 0.0
2017-Sep-24 01:30N 26°05' W 080°11'0 0.0
2017-Sep-24 01:00N 26°05' W 080°11'0 0.0
2017-Sep-24 00:30N 26°05' W 080°11'0 0.0
2017-Sep-24 00:00N 26°05' W 080°11'0 0.0
2017-Sep-23 23:30N 26°05' W 080°11'0 0.0
2017-Sep-23 23:00N 26°05' W 080°11'0 0.0
2017-Sep-23 22:30N 26°05' W 080°11'0 0.0
2017-Sep-23 22:01N 26°05' W 080°11'0 0.0
2017-Sep-23 21:30N 26°05' W 080°11'0 0.0
2017-Sep-23 21:00N 26°05' W 080°11'0 0.0
2017-Sep-23 20:30N 26°05' W 080°11'0 0.0
2017-Sep-23 20:01N 26°05' W 080°11'  

Dump ship's entire track history